createdAt,value
2023-02-06T00:00:55.897Z,6.40
2023-02-06T00:03:23.682Z,6.60
2023-02-06T00:05:59.075Z,6.70
2023-02-06T00:08:27.476Z,7.20
2023-02-06T00:10:55.518Z,6.80
2023-02-06T00:13:30.955Z,7.10
2023-02-06T00:16:20.144Z,6.70
2023-02-06T00:18:48.333Z,7.90
2023-02-06T00:21:21.384Z,6.50
2023-02-06T00:23:49.282Z,6.90
2023-02-06T00:26:17.463Z,7.50
2023-02-06T00:28:45.737Z,6.80
2023-02-06T00:31:15.226Z,8.00
2023-02-06T00:33:43.407Z,6.30
2023-02-06T00:36:11.387Z,6.50
2023-02-06T00:38:39.392Z,6.50
2023-02-06T00:41:07.550Z,6.60
2023-02-06T00:43:35.691Z,6.90
2023-02-06T00:46:03.709Z,6.90
2023-02-06T00:48:31.651Z,6.40
2023-02-06T00:50:59.902Z,7.20
2023-02-06T00:53:28.091Z,7.50
2023-02-06T00:55:56.155Z,7.10
2023-02-06T00:58:24.446Z,6.80
2023-02-06T01:00:52.671Z,7.10
2023-02-06T01:03:20.949Z,6.70
2023-02-06T01:05:48.916Z,7.30
2023-02-06T01:08:16.954Z,8.50
2023-02-06T01:10:45.059Z,8.00
2023-02-06T01:13:13.775Z,7.20
2023-02-06T01:15:42.681Z,7.90
2023-02-06T01:18:10.592Z,8.80
2023-02-06T01:20:41.380Z,7.40
2023-02-06T01:23:09.274Z,7.30
2023-02-06T01:25:39.194Z,8.20
2023-02-06T01:28:07.675Z,6.80
2023-02-06T01:30:35.664Z,7.00
2023-02-06T01:33:03.597Z,7.20
2023-02-06T01:35:31.383Z,7.10
2023-02-06T01:37:59.266Z,7.40
2023-02-06T01:40:27.114Z,7.10
2023-02-06T01:42:55.706Z,6.60
2023-02-06T01:45:32.556Z,7.00
2023-02-06T01:48:03.590Z,6.50
2023-02-06T01:50:31.801Z,6.40
2023-02-06T01:52:59.658Z,6.00
2023-02-06T01:55:29.203Z,6.10
2023-02-06T01:57:59.604Z,6.60
2023-02-06T02:00:27.644Z,5.70
2023-02-06T02:02:55.643Z,6.80
2023-02-06T02:05:23.529Z,6.00
2023-02-06T02:08:01.100Z,6.70
2023-02-06T02:10:29.867Z,6.60
2023-02-06T02:12:59.927Z,5.90
2023-02-06T02:15:39.189Z,5.80
2023-02-06T02:18:16.166Z,6.10
2023-02-06T02:21:14.749Z,5.90
2023-02-06T02:23:46.918Z,6.00
2023-02-06T02:26:33.793Z,6.30
2023-02-06T02:29:29.744Z,6.40
2023-02-06T02:32:14.137Z,6.20
2023-02-06T02:34:47.751Z,6.10
2023-02-06T02:38:09.728Z,6.50
2023-02-06T02:41:01.708Z,6.20
2023-02-06T02:43:55.393Z,5.90
2023-02-06T02:46:29.333Z,6.20
2023-02-06T02:49:02.166Z,6.30
2023-02-06T02:51:30.212Z,5.90
2023-02-06T02:53:58.246Z,5.40
2023-02-06T02:56:26.803Z,5.40
2023-02-06T02:58:58.408Z,5.80
2023-02-06T03:01:32.119Z,5.60
2023-02-06T03:04:09.379Z,5.20
2023-02-06T03:06:44.606Z,5.50
2023-02-06T03:09:45.807Z,5.70
2023-02-06T03:12:28.477Z,5.10
2023-02-06T03:14:59.927Z,5.40
2023-02-06T03:17:51.581Z,5.40
2023-02-06T03:20:19.440Z,5.20
2023-02-06T03:22:47.797Z,4.90
2023-02-06T03:25:18.783Z,5.10
2023-02-06T03:27:47.259Z,5.10
2023-02-06T03:30:15.137Z,5.30
2023-02-06T03:32:51.556Z,5.20
2023-02-06T03:35:21.202Z,5.00
2023-02-06T03:37:49.233Z,5.60
2023-02-06T03:40:34.170Z,5.50
2023-02-06T03:43:03.892Z,5.50
2023-02-06T03:45:42.157Z,5.70
2023-02-06T03:48:24.611Z,5.40
2023-02-06T03:50:54.298Z,5.90
2023-02-06T03:53:22.542Z,6.00
2023-02-06T03:55:50.762Z,6.00
2023-02-06T03:58:20.190Z,5.60
2023-02-06T04:00:48.386Z,5.90
2023-02-06T04:03:16.931Z,6.00
2023-02-06T04:05:44.870Z,6.30
2023-02-06T04:08:14.592Z,6.50
2023-02-06T04:10:42.553Z,6.70
2023-02-06T04:13:11.031Z,6.90
2023-02-06T04:15:39.064Z,6.60
2023-02-06T04:18:07.025Z,7.40
2023-02-06T04:20:41.010Z,7.70
2023-02-06T04:25:37.096Z,7.10
2023-02-06T04:28:05.640Z,7.40
2023-02-06T04:30:34.234Z,7.00
2023-02-06T04:33:02.267Z,7.10
2023-02-06T04:35:30.153Z,7.50
2023-02-06T04:37:58.106Z,7.20
2023-02-06T04:40:25.911Z,6.70
2023-02-06T04:42:53.706Z,6.60
2023-02-06T04:45:22.326Z,6.30
2023-02-06T04:47:50.348Z,6.70
2023-02-06T04:50:18.409Z,6.30
2023-02-06T04:52:46.625Z,6.00
2023-02-06T04:55:14.463Z,6.20
2023-02-06T04:57:42.386Z,6.00
2023-02-06T05:00:11.193Z,6.40
2023-02-06T05:02:39.827Z,6.20
2023-02-06T05:05:08.650Z,6.70
2023-02-06T05:07:37.233Z,6.50
2023-02-06T05:10:05.201Z,6.90
2023-02-06T05:12:33.244Z,6.60
2023-02-06T05:15:01.562Z,7.20
2023-02-06T05:17:29.901Z,7.10
2023-02-06T05:19:58.571Z,7.00
2023-02-06T05:22:26.760Z,7.30
2023-02-06T05:24:54.558Z,7.00
2023-02-06T05:27:22.348Z,6.90
2023-02-06T05:29:50.623Z,6.50
2023-02-06T05:32:19.318Z,6.70
2023-02-06T05:34:47.118Z,6.70
2023-02-06T05:37:14.914Z,6.40
2023-02-06T05:39:43.136Z,6.50
2023-02-06T05:42:10.896Z,6.50
2023-02-06T05:44:38.964Z,6.10
2023-02-06T05:47:06.918Z,6.70
2023-02-06T05:49:35.161Z,6.90
2023-02-06T05:52:03.003Z,6.20
2023-02-06T05:54:30.963Z,6.50
2023-02-06T05:57:00.306Z,7.00
2023-02-06T05:59:28.123Z,7.00
2023-02-06T06:01:55.945Z,6.70
2023-02-06T06:04:24.121Z,6.60
2023-02-06T06:06:55.398Z,6.70
2023-02-06T06:09:23.790Z,6.60
2023-02-06T06:13:02.371Z,6.60
2023-02-06T06:15:30.433Z,6.60
2023-02-06T06:18:01.375Z,6.60
2023-02-06T06:20:29.653Z,6.90
2023-02-06T06:22:57.655Z,6.60
2023-02-06T06:25:25.486Z,6.80
2023-02-06T06:27:53.602Z,7.10
2023-02-06T06:30:23.374Z,6.70
2023-02-06T06:32:51.845Z,6.50
2023-02-06T06:35:20.262Z,6.80
2023-02-06T06:37:48.104Z,7.20
2023-02-06T06:40:16.306Z,7.30
2023-02-06T06:42:44.540Z,6.70
2023-02-06T06:45:12.533Z,7.10
2023-02-06T06:47:40.802Z,7.60
2023-02-06T06:50:11.644Z,7.00
2023-02-06T06:52:39.420Z,7.70
2023-02-06T06:55:07.926Z,7.30
2023-02-06T06:57:35.768Z,6.90
2023-02-06T07:00:04.460Z,6.90
2023-02-06T07:02:32.740Z,7.10
2023-02-06T07:05:00.672Z,6.90
2023-02-06T07:07:28.833Z,6.70
2023-02-06T07:09:56.991Z,6.80
2023-02-06T07:12:25.016Z,7.20
2023-02-06T07:14:53.788Z,7.10
2023-02-06T07:17:21.658Z,6.90
2023-02-06T07:19:52.423Z,7.10
2023-02-06T07:22:20.469Z,6.90
2023-02-06T07:24:48.512Z,7.00
2023-02-06T07:27:16.623Z,6.50
2023-02-06T07:29:44.504Z,6.80
2023-02-06T07:32:12.417Z,6.80
2023-02-06T07:34:40.836Z,7.20
2023-02-06T07:37:08.660Z,6.90
2023-02-06T07:39:36.478Z,7.20
2023-02-06T12:09:34.971Z,2.60
2023-02-06T12:12:18.125Z,2.90
2023-02-06T12:14:51.883Z,2.50
2023-02-06T12:17:40.073Z,2.50
2023-02-06T12:20:26.461Z,2.40
2023-02-06T12:23:01.285Z,2.80
2023-02-06T12:25:41.621Z,3.00
2023-02-06T12:28:15.430Z,3.30
2023-02-06T12:30:51.418Z,3.30
2023-02-06T12:33:22.506Z,3.30
2023-02-06T12:35:59.452Z,3.90
2023-02-06T12:38:41.994Z,3.60
2023-02-06T12:41:28.810Z,3.30
2023-02-06T12:44:00.895Z,3.10
2023-02-06T12:46:30.237Z,3.50
2023-02-06T12:49:12.356Z,3.40
2023-02-06T12:51:43.332Z,3.60
2023-02-06T12:54:40.852Z,3.70
2023-02-06T12:57:17.349Z,3.80
2023-02-06T13:00:12.806Z,3.80
2023-02-06T13:02:50.072Z,3.20
2023-02-06T13:05:27.036Z,3.70
2023-02-06T13:07:56.951Z,3.50
2023-02-06T13:10:25.492Z,4.00
2023-02-06T13:12:58.563Z,4.20
2023-02-06T13:15:38.883Z,4.20
2023-02-06T13:18:41.857Z,4.60
2023-02-06T13:21:16.320Z,4.50
2023-02-06T13:24:02.754Z,4.70
2023-02-06T13:26:46.323Z,5.30
2023-02-06T13:29:37.626Z,4.80
2023-02-06T13:32:22.653Z,5.00
2023-02-06T13:35:10.126Z,5.00
2023-02-06T13:37:40.754Z,5.50
2023-02-06T13:40:24.048Z,5.20
2023-02-06T13:43:19.738Z,5.10
2023-02-06T13:45:59.665Z,5.20
2023-02-06T13:48:46.808Z,5.50
2023-02-06T13:51:33.803Z,5.40
2023-02-06T13:54:35.826Z,5.50
2023-02-06T13:57:31.638Z,5.40
2023-02-06T14:00:24.323Z,5.20
2023-02-06T14:03:11.202Z,5.10
2023-02-06T14:05:54.996Z,4.90
2023-02-06T14:08:28.865Z,5.00
2023-02-06T14:11:09.708Z,4.80
2023-02-06T14:13:38.176Z,4.40
2023-02-06T14:16:31.517Z,4.00
2023-02-06T14:19:05.021Z,3.90
2023-02-06T14:21:55.889Z,4.20
2023-02-06T14:24:45.788Z,4.20
2023-02-06T14:27:19.733Z,4.20
2023-02-06T14:32:54.346Z,4.30
2023-02-06T14:35:38.210Z,4.30
2023-02-06T14:38:17.925Z,4.60
2023-02-06T14:40:49.868Z,5.20
2023-02-06T14:43:22.060Z,4.80
2023-02-06T14:46:05.689Z,5.00
2023-02-06T14:48:44.850Z,5.00
2023-02-06T14:51:42.034Z,4.90
2023-02-06T14:54:36.581Z,4.90
2023-02-06T14:57:06.591Z,4.70
2023-02-06T14:59:34.616Z,4.40
2023-02-06T15:02:12.559Z,4.70
2023-02-06T15:04:47.409Z,4.30
2023-02-06T15:07:22.608Z,4.90
2023-02-06T15:10:06.934Z,4.50
2023-02-06T15:12:35.419Z,4.80
2023-02-06T15:15:19.818Z,4.70
2023-02-06T15:18:00.894Z,4.80
2023-02-06T15:20:45.199Z,4.70
2023-02-06T15:23:25.106Z,4.40
2023-02-06T15:26:04.178Z,4.70
2023-02-06T15:28:34.286Z,4.90
2023-02-06T15:31:02.690Z,4.90
2023-02-06T15:33:33.125Z,5.20
2023-02-06T15:36:03.261Z,4.80
2023-02-06T15:38:32.267Z,4.70
2023-02-06T15:41:03.729Z,4.90
2023-02-06T15:43:34.302Z,4.30
2023-02-06T18:37:20.517Z,5.10
2023-02-06T18:39:48.871Z,5.30
2023-02-06T18:42:35.222Z,4.50
2023-02-06T18:45:04.224Z,4.60
2023-02-06T18:47:32.273Z,4.70
2023-02-06T18:50:00.392Z,4.30
2023-02-06T18:52:28.796Z,4.50
2023-02-06T18:54:56.790Z,4.80
2023-02-06T18:57:24.760Z,5.10
2023-02-06T18:59:54.983Z,5.00
2023-02-06T19:02:22.890Z,5.70
2023-02-06T19:04:51.153Z,5.60
2023-02-06T19:07:19.188Z,6.10
2023-02-06T19:09:47.052Z,6.30
2023-02-06T19:12:14.832Z,6.30
2023-02-06T19:14:42.694Z,6.10
2023-02-06T19:17:11.689Z,6.30
2023-02-06T19:19:39.621Z,6.40
2023-02-06T19:22:07.859Z,6.60
2023-02-06T19:24:36.250Z,6.60
2023-02-06T19:27:04.226Z,6.40
2023-02-06T19:29:36.091Z,6.20
2023-02-06T19:32:05.906Z,6.10
2023-02-06T19:34:36.564Z,6.40
2023-02-06T19:37:05.009Z,6.80
2023-02-06T19:39:34.425Z,6.60
2023-02-06T19:42:06.964Z,6.40
2023-02-06T19:44:35.512Z,6.80
2023-02-06T19:47:03.453Z,7.50
2023-02-06T19:49:34.748Z,7.40
2023-02-06T19:52:04.512Z,7.60
2023-02-06T19:54:32.721Z,7.60
2023-02-06T19:57:00.724Z,7.60
2023-02-06T19:59:29.172Z,7.90
2023-02-06T20:01:58.749Z,7.60
2023-02-06T20:04:32.225Z,7.90
2023-02-06T20:07:02.219Z,7.80
2023-02-06T20:09:30.759Z,8.70
2023-02-06T20:11:59.015Z,8.90
2023-02-06T20:14:28.028Z,8.70
2023-02-06T20:16:56.052Z,8.80
2023-02-06T20:19:25.552Z,9.30
2023-02-06T20:21:55.287Z,11.00
2023-02-06T20:24:25.198Z,12.00
2023-02-06T20:26:56.739Z,13.40
2023-02-06T20:29:27.681Z,14.90
2023-02-06T20:31:56.928Z,15.00
2023-02-06T20:34:24.856Z,15.70
2023-02-06T20:36:53.385Z,16.30
2023-02-06T20:39:21.582Z,15.40
2023-02-06T20:41:50.784Z,13.60
2023-02-06T20:44:19.019Z,13.50
2023-02-06T20:46:47.362Z,12.80
2023-02-06T20:49:16.965Z,13.10
2023-02-06T20:51:45.214Z,11.40
2023-02-06T20:54:13.047Z,11.80
2023-02-06T20:56:41.036Z,11.80
2023-02-06T20:59:11.084Z,11.70
2023-02-06T21:01:39.146Z,12.30
2023-02-06T21:04:08.430Z,11.10
2023-02-06T21:06:36.875Z,10.90
2023-02-06T21:09:07.131Z,11.50
2023-02-06T21:11:37.009Z,11.20
2023-02-06T21:14:05.611Z,11.30
2023-02-06T21:16:34.210Z,11.40
2023-02-06T21:19:02.181Z,10.90
2023-02-06T21:21:30.225Z,10.00
2023-02-06T21:23:58.109Z,9.50
2023-02-06T21:26:26.139Z,9.40
2023-02-06T21:28:54.113Z,9.10
2023-02-06T21:31:23.781Z,9.70
2023-02-06T21:33:52.253Z,8.60
2023-02-06T21:36:21.284Z,8.70
2023-02-06T21:38:49.346Z,9.50
2023-02-06T21:41:19.287Z,10.10
2023-02-06T21:43:47.108Z,9.30
2023-02-06T21:46:16.277Z,9.80
2023-02-06T21:48:44.268Z,12.70
2023-02-06T21:51:14.001Z,16.70
2023-02-06T21:53:42.862Z,13.00
2023-02-06T21:56:21.561Z,11.10
2023-02-06T21:58:49.605Z,11.60
2023-02-06T22:01:26.368Z,12.20
2023-02-06T22:03:54.661Z,12.30
2023-02-06T22:06:22.675Z,11.00
2023-02-06T22:08:51.991Z,10.70
2023-02-06T22:11:23.921Z,10.10
2023-02-06T22:13:52.524Z,9.60
2023-02-06T22:16:23.838Z,9.70
2023-02-06T22:18:51.796Z,9.30
2023-02-06T22:21:21.198Z,9.30
2023-02-06T22:23:49.707Z,9.30
2023-02-06T22:26:18.508Z,9.60
2023-02-06T22:28:46.523Z,9.50
2023-02-06T22:31:22.101Z,10.30
2023-02-06T22:33:50.403Z,10.10
2023-02-06T22:36:20.306Z,9.60
2023-02-06T22:38:50.460Z,9.70
2023-02-06T22:41:18.454Z,9.40
2023-02-06T22:43:49.178Z,9.10
2023-02-06T22:46:24.531Z,11.80
2023-02-06T22:48:52.406Z,9.30
2023-02-06T22:51:20.264Z,9.10
2023-02-06T22:53:48.194Z,8.90
2023-02-06T22:56:26.732Z,8.90
2023-02-06T22:58:59.618Z,8.60
2023-02-06T23:01:33.227Z,8.60
2023-02-06T23:04:01.604Z,8.00
2023-02-06T23:06:30.376Z,8.90
2023-02-06T23:08:59.301Z,8.60
2023-02-06T23:11:28.299Z,9.40
2023-02-06T23:13:58.939Z,9.70
2023-02-06T23:16:28.779Z,9.10
2023-02-06T23:18:56.935Z,8.70
2023-02-06T23:21:25.429Z,8.70
2023-02-06T23:23:54.938Z,9.60
2023-02-06T23:26:23.128Z,9.20
2023-02-06T23:28:51.302Z,9.50
2023-02-06T23:31:19.319Z,9.10
2023-02-06T23:33:47.166Z,9.30
2023-02-06T23:36:16.282Z,9.50
2023-02-06T23:38:44.521Z,9.20
2023-02-06T23:41:17.274Z,9.80
2023-02-06T23:43:49.120Z,8.70
2023-02-06T23:46:17.335Z,9.10
2023-02-06T23:48:45.866Z,9.10
2023-02-06T23:51:13.740Z,8.70
2023-02-06T23:53:42.216Z,8.80
2023-02-06T23:56:36.458Z,8.60
2023-02-06T23:59:04.563Z,9.00
